Flight Track Log - Related Links

Times and Time Zones

All times are in EDT time to prevent confusion due to time zone crossing. See the SWA561 flight status page for this flight to view local times or setup timezone preferences in your user account.

Time Position Orientation Groundspeed Altitude Reporting Facility
EDT Latitude Longitude Course Direction KTS MPH feet Rate Location/Type
Tue 09:30:06 PM 33.9403 -118.5511 260° West 237 273 5,200  Level Los Angeles Center
Tue 09:31:08 PM 33.9086 -118.6358 246° West 286 329 9,000 2,516 Climbing Los Angeles Center
Tue 09:32:10 PM 33.8269 -118.6336 179° South 309 356 10,400 1,610 Climbing Los Angeles Center
Tue 09:33:11 PM 33.7481 -118.5653 144° Southeast 357 411 12,300 2,293 Climbing Los Angeles Center
Tue 09:34:00 PM 33.6702 -118.4378 101° East  Level FlightAware Approximate
Tue 09:34:13 PM 33.6911 -118.4619 123° Southeast 399 459 15,100  Level Los Angeles Center
Tue 09:35:15 PM 33.6878 -118.3325 92° East 402 463 18,600 2,927 Climbing Los Angeles Center
Tue 09:36:16 PM 33.6850 -118.1600 91° East 450 518 21,100 2,634 Climbing Los Angeles Center
Tue 09:37:18 PM 33.6817 -118.0011 91° East 479 551 24,000 2,537 Climbing Los Angeles Center
Tue 09:38:19 PM 33.6778 -117.8342 92° East 497 572 26,300 2,244 Climbing Los Angeles Center
Tue 09:39:21 PM 33.6736 -117.6622 92° East 515 593 28,600 2,098 Climbing Los Angeles Center
Tue 09:40:22 PM 33.6694 -117.4861 92° East 527 606 30,600 2,098 Climbing Los Angeles Center
Tue 09:41:24 PM 33.6631 -117.3078 92° East 533 613 32,900 2,146 Climbing Los Angeles Center
Tue 09:42:25 PM 33.6575 -117.0931 92° East 537 618 35,000 1,644 Climbing Los Angeles Center
Tue 09:43:39 PM 33.6514 -116.9111 92° East 544 626 36,600 1,632 Climbing Los Angeles Center
Tue 09:44:41 PM 33.6475 -116.6914 91° East 546 628 38,700 1,122 Climbing Los Angeles Center
Tue 09:45:42 PM 33.6394 -116.5117 93° East 541 623 38,900 98 Climbing Los Angeles Center
Tue 09:46:44 PM 33.6103 -116.3400 101° East 524 603 38,900  Level Los Angeles Center
Tue 09:47:45 PM 33.5814 -116.1639 101° East 532 612 38,900  Level Los Angeles Center
Tue 09:48:47 PM 33.5517 -115.9906 102° East 529 609 38,900  Level Los Angeles Center
Tue 09:49:48 PM 33.5228 -115.8178 101° East 526 605 38,900  Level Los Angeles Center
Tue 09:50:50 PM 33.4950 -115.6444 101° East 527 606 38,900  Level Los Angeles Center
Tue 09:51:51 PM 33.4639 -115.4711 102° East 530 610 38,900 49 Level Los Angeles Center
Tue 09:52:53 PM 33.4286 -115.2647 102° East 527 606 39,000  Climbing Los Angeles Center
Tue 09:53:54 PM 33.3986 -115.0931 102° East 527 606 38,900  Descending Los Angeles Center
Tue 09:54:56 PM 33.3681 -114.9208 102° East 529 609 39,000  Climbing Los Angeles Center
Tue 09:55:57 PM 33.3372 -114.7481 102° East 529 609 38,900 -49 Descending Los Angeles Center
Tue 09:56:59 PM 33.3078 -114.5764 102° East 527 606 38,900 54 Level Los Angeles Center
Tue 09:57:48 PM 33.2844 -114.4222 100° East 529 609 39,000  Climbing Albuquerque Center
Tue 09:58:49 PM 33.2525 -114.2508 103° East 528 608 38,900 -49 Descending Albuquerque Center
Tue 09:59:51 PM 33.2228 -114.0800 102° East 526 605 38,900  Level Albuquerque Center
Tue 10:00:52 PM 33.1906 -113.9081 103° East 531 611 38,900 -344 Level Albuquerque Center
Tue 10:01:53 PM 33.1594 -113.7358 102° East 530 610 38,200 -780 Descending Albuquerque Center
Tue 10:02:55 PM 33.1256 -113.5597 103° East 539 620 37,300 -927 Descending Albuquerque Center
Tue 10:03:56 PM 33.0931 -113.3814 102° East 547 629 36,300 -934 Descending Albuquerque Center
Tue 10:04:57 PM 33.0581 -113.2028 103° East 550 633 35,400 -780 Descending Albuquerque Center
Tue 10:05:59 PM 33.0253 -113.0261 102° East 546 628 34,700 -829 Descending Albuquerque Center
Tue 10:07:00 PM 32.9922 -112.8519 103° East 539 620 33,700 -1,073 Descending Albuquerque Center
Tue 10:08:02 PM 32.9683 -112.6417 98° East 533 613 32,500 -1,024 Descending Albuquerque Center
Tue 10:09:03 PM 32.9467 -112.4692 98° East 526 605 31,600 -934 Descending Albuquerque Center
Tue 10:10:04 PM 32.9258 -112.2992 98° East 521 600 30,600 -976 Descending Albuquerque Center
Tue 10:11:06 PM 32.8919 -112.1269 103° East 521 600 29,600 -1,415 Descending Albuquerque Center
Tue 10:12:07 PM 32.8203 -111.9931 122° Southeast 488 562 27,700 -2,066 Descending Albuquerque Center
Tue 10:13:08 PM 32.7364 -111.8747 130° Southeast 472 543 25,400 -2,683 Descending Albuquerque Center
Tue 10:14:10 PM 32.6564 -111.7636 131° Southeast 451 519 22,200 -3,286 Descending Albuquerque Center
Tue 10:14:32 PM 32.6178 -111.7181 135° Southeast 451 519 20,800 -3,391 Descending Albuquerque Center
Tue 10:14:56 PM 32.5883 -111.6753 129° Southeast 448 516 19,600 -2,615 Descending Albuquerque Center
Tue 10:15:11 PM 32.5761 -111.6542 124° Southeast 445 512 19,100 -3,222 Descending Albuquerque Center
Tue 10:15:50 PM 32.5161 -111.5756 132° Southeast 434 499 16,700 -2,951 Descending Albuquerque Center
Tue 10:16:12 PM 32.5014 -111.5436 119° Southeast 439 505 16,100 -2,262 Descending Albuquerque Center
Tue 10:16:51 PM 32.4742 -111.4453 108° East 423 487 14,400 -2,032 Descending Albuquerque Center
Tue 10:17:14 PM 32.4722 -111.4119 94° East 423 487 14,000 -1,770 Descending Albuquerque Center
Tue 10:17:52 PM 32.4539 -111.3169 103° East 401 461 12,600 -1,967 Descending Albuquerque Center
Tue 10:18:15 PM 32.4483 -111.2650 97° East 402 463 12,000 -1,818 Descending Albuquerque Center
Tue 10:18:58 PM 32.4333 -111.1886 103° East 352 405 10,600 -1,548 Descending Albuquerque Center
Tue 10:19:17 PM 32.4306 -111.1567 96° East 361 415 10,400 -545 Descending Albuquerque Center
Tue 10:19:53 PM 32.4189 -111.0917 102° East 327 376 10,100 -787 Descending Albuquerque Center
Tue 10:20:18 PM 32.4150 -111.0525 97° East 334 384 9,600 -1,300 Descending Albuquerque Center
Tue 10:20:53 PM 32.4025 -110.9975 105° East 287 330 8,800 -1,180 Descending Albuquerque Center
Tue 10:21:19 PM 32.3939 -110.9644 107° East 307 353 8,400 -689 Descending Albuquerque Center
Tue 10:21:54 PM 32.3561 -110.9344 146° Southeast 251 289 8,100 -484 Descending Albuquerque Center
Tue 10:22:21 PM 32.3436 -110.9136 125° Southeast 260 299 7,900 -590 Descending Albuquerque Center
Tue 10:22:55 PM 32.3117 -110.8833 141° Southeast 226 260 7,500 -787 Descending Albuquerque Center
Tue 10:23:22 PM 32.3003 -110.8628 123° Southeast 237 273 7,100 -1,100 Descending Albuquerque Center
Tue 10:23:55 PM 32.2700 -110.8342 141° Southeast 215 247 6,400 -387 Descending Albuquerque Center
Tue 10:24:24 PM 32.2606 -110.8150 120° Southeast 231 266 6,700 -1,082 Climbing Albuquerque Center
Tue 10:24:56 PM 32.2244 -110.8314 201° Southwest 194 223 5,300 -1,565 Descending Albuquerque Center
Tue 10:25:56 PM 32.1897 -110.8736 226° Southwest 179 206 4,300 -857 Descending Albuquerque Center
Tue 10:27:09 PM 32.1569 -110.9128 225° Southwest 133 153 3,400 -716 Descending Albuquerque Center
Tue 10:28:10 PM 32.1325 -110.9419 225° Southwest 125 144 2,700 -689 Descending Albuquerque Center

Login

Don't have an account? Register now (free) for customized features, flight alerts, and more!